Time;durP1;ratioP1;P1;durP2;ratioP2;P2;SDS_P1;SDS_P2;PMS_P1;PMS_P2;Temp;Humidity;BMP_temperature;BMP_pressure;BME280_temperature;BME280_humidity;BME280_pressure;Samples;Min_cycle;Max_cycle;Signal;HPM_P1;HPM_P2
2022/09/15 00:01:30;;;;;;;8.37;7.20;;;19.20;90.80;;;;;;5012646;28;20199;-59
2022/09/15 00:03:56;;;;;;;8.30;7.50;;;19.10;90.80;;;;;;5001365;28;20189;-60
2022/09/15 00:06:21;;;;;;;10.30;7.33;;;19.20;91.10;;;;;;5024820;28;20276;-58
2022/09/15 00:08:47;;;;;;;12.67;7.53;;;19.10;91.00;;;;;;5014895;28;20213;-59
2022/09/15 00:11:26;;;;;;;8.17;6.87;;;19.20;91.00;;;;;;5019348;28;20204;-59
2022/09/15 00:13:52;;;;;;;6.97;6.40;;;19.10;91.20;;;;;;5023828;28;20172;-59
2022/09/15 00:16:20;;;;;;;8.50;6.87;;;19.10;91.20;;;;;;4982298;28;20248;-59
2022/09/15 00:18:46;;;;;;;7.40;6.30;;;19.10;91.20;;;;;;4990622;28;20204;-59
2022/09/15 00:21:17;;;;;;;7.50;6.63;;;19.10;91.20;;;;;;5015632;28;20189;-59
2022/09/15 00:23:43;;;;;;;7.47;6.73;;;19.10;91.10;;;;;;5013168;28;20185;-60
2022/09/15 00:26:11;;;;;;;7.87;6.60;;;19.10;90.90;;;;;;5027413;28;20200;-59
2022/09/15 00:28:38;;;;;;;7.57;6.10;;;19.00;90.90;;;;;;5019759;28;20185;-59
2022/09/15 00:31:07;;;;;;;7.80;7.00;;;19.00;91.10;;;;;;5025980;28;20203;-59
2022/09/15 00:33:33;;;;;;;7.63;6.50;;;19.00;91.20;;;;;;5024147;28;20233;-60
2022/09/15 00:36:02;;;;;;;7.40;6.70;;;19.00;91.20;;;;;;5013231;28;20235;-59
2022/09/15 00:38:31;;;;;;;8.10;7.40;;;19.00;91.40;;;;;;5018850;28;20178;-59
2022/09/15 00:40:57;;;;;;;10.03;8.03;;;19.10;91.50;;;;;;5010241;28;20240;-60
2022/09/15 00:43:50;;;;;;;8.97;6.80;;;19.10;91.60;;;;;;5023988;28;20194;-59
2022/09/15 00:46:18;;;;;;;8.23;7.43;;;19.00;91.60;;;;;;5027286;28;20276;-60
2022/09/15 00:49:06;;;;;;;10.30;7.63;;;19.00;91.60;;;;;;4983736;28;20192;-60
2022/09/15 00:51:51;;;;;;;8.47;7.53;;;19.00;91.60;;;;;;4978063;28;20185;-59
2022/09/15 00:54:21;;;;;;;9.13;7.60;;;19.00;91.90;;;;;;5021600;28;20187;-60
2022/09/15 00:56:50;;;;;;;8.20;7.30;;;19.00;91.70;;;;;;4990394;28;20264;-60
2022/09/15 00:59:19;;;;;;;7.60;6.90;;;19.00;91.80;;;;;;5022085;28;20205;-60
2022/09/15 01:01:48;;;;;;;9.83;7.37;;;19.00;91.90;;;;;;5015131;28;20276;-60
2022/09/15 01:04:15;;;;;;;10.47;7.37;;;19.00;91.80;;;;;;4996171;28;20188;-60
2022/09/15 01:06:45;;;;;;;8.27;7.00;;;19.00;92.00;;;;;;5004565;28;20236;-60
2022/09/15 01:09:20;;;;;;;7.87;7.03;;;19.00;91.80;;;;;;5014896;28;20203;-60
2022/09/15 01:11:46;;;;;;;8.63;7.10;;;18.90;91.80;;;;;;5015926;28;20199;-60
2022/09/15 01:14:11;;;;;;;7.63;6.87;;;18.90;91.70;;;;;;4970653;28;20185;-60
2022/09/15 01:16:43;;;;;;;12.67;7.10;;;18.80;91.70;;;;;;5008251;28;20225;-59
2022/09/15 01:19:28;;;;;;;8.87;6.70;;;18.80;91.80;;;;;;5024569;28;20264;-59
2022/09/15 01:22:20;;;;;;;8.33;7.43;;;18.80;91.90;;;;;;5027095;28;20176;-59
2022/09/15 01:24:55;;;;;;;7.50;6.80;;;18.80;92.10;;;;;;4991426;28;20201;-60
2022/09/15 01:27:32;;;;;;;6.60;6.00;;;18.80;92.00;;;;;;5017678;28;20192;-60
2022/09/15 01:30:03;;;;;;;8.33;7.27;;;18.80;92.00;;;;;;5020809;28;20188;-60
2022/09/15 01:35:21;;;;;;;7.80;7.17;;;18.80;92.40;;;;;;4991325;28;20218;-60
2022/09/15 01:38:07;;;;;;;7.23;6.53;;;18.80;92.20;;;;;;5009409;28;20197;-60
2022/09/15 01:40:49;;;;;;;7.07;6.37;;;18.80;92.20;;;;;;4985724;28;20304;-60
2022/09/15 01:43:18;;;;;;;7.30;6.50;;;18.80;92.10;;;;;;4989515;28;20263;-60
2022/09/15 01:45:47;;;;;;;8.40;5.90;;;18.80;92.10;;;;;;4972660;28;20200;-60
2022/09/15 01:48:14;;;;;;;6.13;5.20;;;18.80;92.00;;;;;;5012231;28;20192;-60
2022/09/15 01:50:47;;;;;;;7.70;5.13;;;18.70;91.80;;;;;;5013397;28;20197;-60
2022/09/15 01:53:19;;;;;;;8.57;5.00;;;18.70;91.80;;;;;;5018988;28;20188;-60
2022/09/15 01:56:05;;;;;;;5.57;5.17;;;18.70;91.80;;;;;;5014704;28;20186;-60
2022/09/15 01:58:32;;;;;;;7.17;4.60;;;18.70;91.90;;;;;;5016906;28;20237;-60
2022/09/15 02:01:11;;;;;;;6.00;4.73;;;18.70;91.90;;;;;;5010300;28;20216;-59
2022/09/15 02:03:47;;;;;;;6.13;4.77;;;18.60;91.80;;;;;;4999423;28;20173;-60
2022/09/15 02:06:23;;;;;;;5.20;4.77;;;18.60;92.00;;;;;;4980067;28;20177;-59
2022/09/15 02:08:57;;;;;;;5.30;4.80;;;18.60;92.20;;;;;;5007824;28;20195;-59
2022/09/15 02:11:26;;;;;;;6.67;5.00;;;18.60;92.00;;;;;;4983503;28;20177;-59
2022/09/15 02:14:10;;;;;;;5.63;4.83;;;18.50;92.20;;;;;;5021933;28;20188;-60
2022/09/15 02:16:37;;;;;;;6.50;5.23;;;18.50;92.20;;;;;;5012821;28;20186;-60
2022/09/15 02:19:32;;;;;;;7.53;5.10;;;18.50;92.10;;;;;;4995237;28;20213;-59
2022/09/15 02:22:22;;;;;;;5.97;4.70;;;18.50;92.10;;;;;;5008208;28;20182;-59
2022/09/15 02:25:03;;;;;;;6.67;5.63;;;18.40;92.00;;;;;;5012108;28;20190;-59
2022/09/15 02:27:36;;;;;;;5.60;5.10;;;18.40;92.10;;;;;;4992885;28;20180;-59
2022/09/15 02:30:06;;;;;;;5.50;5.03;;;18.40;92.30;;;;;;5021982;28;20188;-60
2022/09/15 02:32:35;;;;;;;5.33;4.73;;;18.40;92.30;;;;;;4977428;28;20233;-60
2022/09/15 02:35:06;;;;;;;4.87;4.43;;;18.40;92.20;;;;;;5023091;28;20184;-60
2022/09/15 02:37:34;;;;;;;4.67;4.10;;;18.40;92.20;;;;;;5020951;28;20324;-60
2022/09/15 02:40:01;;;;;;;5.97;4.50;;;18.30;92.20;;;;;;4991885;28;20294;-60
2022/09/15 02:42:29;;;;;;;4.80;4.30;;;18.40;92.40;;;;;;5022805;28;20181;-59
2022/09/15 02:44:55;;;;;;;4.73;4.27;;;18.40;92.20;;;;;;4990432;28;20192;-59
2022/09/15 02:47:22;;;;;;;5.30;4.57;;;18.30;92.20;;;;;;4980904;28;20181;-59
2022/09/15 02:49:47;;;;;;;5.50;4.30;;;18.30;92.20;;;;;;5012442;28;20193;-59
2022/09/15 02:52:13;;;;;;;6.33;4.00;;;18.30;92.20;;;;;;5019919;28;20189;-60
2022/09/15 02:54:39;;;;;;;5.73;4.20;;;18.30;92.30;;;;;;5002755;28;20192;-59
2022/09/15 02:57:05;;;;;;;5.37;4.27;;;18.30;92.30;;;;;;4974714;28;20229;-60
2022/09/15 03:00:12;;;;;;;4.97;4.10;;;18.30;92.20;;;;;;5005656;28;20216;-59
2022/09/15 03:02:18;;;;;;;6.57;4.10;;;18.30;92.30;;;;;;4980380;28;20192;-59
2022/09/15 03:04:47;;;;;;;4.57;4.17;;;18.30;92.20;;;;;;5015208;28;20275;-60
2022/09/15 03:07:13;;;;;;;4.97;4.57;;;18.20;92.10;;;;;;5004816;28;20211;-60
2022/09/15 03:09:39;;;;;;;6.60;4.90;;;18.20;92.10;;;;;;4989520;28;20189;-60
2022/09/15 03:12:05;;;;;;;5.67;4.93;;;18.20;92.10;;;;;;5012767;28;20185;-60
2022/09/15 03:14:31;;;;;;;4.40;4.10;;;18.20;92.20;;;;;;5020021;28;20212;-59
2022/09/15 03:17:01;;;;;;;6.03;5.43;;;18.20;92.20;;;;;;5023252;28;20223;-59
2022/09/15 03:19:27;;;;;;;5.43;4.23;;;18.20;92.30;;;;;;4988817;28;20201;-60
2022/09/15 03:21:52;;;;;;;6.33;4.40;;;18.20;92.10;;;;;;4982062;28;20240;-60
2022/09/15 03:24:18;;;;;;;4.30;3.90;;;18.10;92.10;;;;;;5016918;28;20213;-60
2022/09/15 03:26:45;;;;;;;4.30;4.00;;;18.10;92.20;;;;;;4998812;28;20236;-59
2022/09/15 03:29:11;;;;;;;3.80;3.50;;;18.10;92.10;;;;;;4994439;28;20244;-59
2022/09/15 03:31:37;;;;;;;4.23;3.83;;;18.00;92.00;;;;;;4993765;28;20185;-60
2022/09/15 03:34:03;;;;;;;7.70;4.27;;;18.00;92.00;;;;;;4995545;28;20194;-60
2022/09/15 03:36:28;;;;;;;4.83;4.37;;;17.90;91.90;;;;;;5029545;28;20267;-60
2022/09/15 03:38:58;;;;;;;5.97;4.33;;;17.90;92.20;;;;;;4999816;28;20197;-59
2022/09/15 03:41:24;;;;;;;4.83;4.33;;;17.90;92.20;;;;;;5013894;28;20239;-60
2022/09/15 03:43:51;;;;;;;4.50;4.10;;;17.90;92.20;;;;;;5032997;28;20193;-59
2022/09/15 03:46:17;;;;;;;6.17;4.30;;;17.80;92.00;;;;;;4987437;28;20181;-59
2022/09/15 03:48:43;;;;;;;5.00;4.07;;;17.80;92.10;;;;;;4977461;28;20181;-60
2022/09/15 03:51:10;;;;;;;4.33;3.70;;;17.80;92.10;;;;;;5009831;28;20236;-60
2022/09/15 03:53:38;;;;;;;6.73;4.03;;;17.80;92.20;;;;;;4992933;28;20209;-60
2022/09/15 03:56:26;;;;;;;5.07;3.97;;;17.80;92.00;;;;;;4983581;28;20184;-60
2022/09/15 03:58:52;;;;;;;4.53;4.13;;;17.80;92.00;;;;;;4981951;28;20181;-60
2022/09/15 04:01:19;;;;;;;13.67;4.53;;;17.80;92.20;;;;;;4993129;28;20174;-60
2022/09/15 04:03:45;;;;;;;6.73;4.20;;;17.80;92.20;;;;;;5032829;28;20220;-59
2022/09/15 04:06:11;;;;;;;4.80;4.40;;;17.70;92.20;;;;;;5005027;28;20184;-59
2022/09/15 04:08:37;;;;;;;4.57;4.17;;;17.70;92.20;;;;;;4991923;28;20193;-60
2022/09/15 04:11:07;;;;;;;5.13;4.63;;;17.70;92.20;;;;;;5001093;28;20200;-60
2022/09/15 04:13:35;;;;;;;5.10;4.27;;;17.70;92.20;;;;;;4983386;28;20197;-60
2022/09/15 04:16:05;;;;;;;5.27;3.90;;;17.70;92.30;;;;;;4984252;28;20189;-60
2022/09/15 04:18:32;;;;;;;4.83;3.80;;;17.70;92.50;;;;;;4986043;28;20262;-59
2022/09/15 04:20:59;;;;;;;5.60;4.20;;;17.80;92.40;;;;;;5016560;28;20251;-60
2022/09/15 04:23:25;;;;;;;8.53;4.60;;;17.80;92.50;;;;;;5023033;28;20184;-60
2022/09/15 04:25:58;;;;;;;5.03;4.53;;;17.80;92.60;;;;;;5022198;28;20192;-60
2022/09/15 04:28:25;;;;;;;5.67;4.33;;;17.80;92.50;;;;;;5009589;28;20185;-60
2022/09/15 04:30:52;;;;;;;4.73;4.33;;;17.80;92.30;;;;;;4984949;28;20189;-60
2022/09/15 04:33:18;;;;;;;4.97;4.47;;;17.70;92.20;;;;;;4986518;28;20232;-60
2022/09/15 04:35:44;;;;;;;7.03;4.53;;;17.80;92.40;;;;;;4992791;28;20189;-60
2022/09/15 04:38:10;;;;;;;5.37;4.80;;;17.70;92.40;;;;;;5021555;28;20255;-60
2022/09/15 04:40:37;;;;;;;6.27;4.80;;;17.70;92.50;;;;;;5005805;28;20329;-60
2022/09/15 04:43:03;;;;;;;6.77;4.97;;;17.70;92.50;;;;;;4980936;28;20182;-60
2022/09/15 04:45:29;;;;;;;4.73;4.27;;;17.70;92.60;;;;;;5008193;28;20184;-60
2022/09/15 04:47:54;;;;;;;5.53;5.03;;;17.80;92.60;;;;;;5018074;28;20197;-58
2022/09/15 04:50:20;;;;;;;8.40;4.83;;;17.80;92.70;;;;;;4997430;28;20202;-60
2022/09/15 04:52:46;;;;;;;5.37;4.87;;;17.70;92.60;;;;;;5018126;28;20190;-59
2022/09/15 04:55:12;;;;;;;9.00;5.23;;;17.70;92.60;;;;;;5001112;28;20189;-59
2022/09/15 04:57:38;;;;;;;7.33;5.40;;;17.60;92.50;;;;;;4968189;28;20200;-59
2022/09/15 05:00:06;;;;;;;6.47;4.53;;;17.50;92.80;;;;;;4994675;28;20213;-59
2022/09/15 05:02:32;;;;;;;7.40;4.80;;;17.50;93.00;;;;;;4998693;28;20193;-59
2022/09/15 05:04:58;;;;;;;7.57;5.70;;;17.50;93.10;;;;;;4992252;28;20193;-59
2022/09/15 05:07:24;;;;;;;5.50;5.00;;;17.70;93.20;;;;;;5013274;28;20180;-59
2022/09/15 05:09:50;;;;;;;4.93;4.53;;;17.70;93.30;;;;;;5003817;28;20204;-60
2022/09/15 05:12:16;;;;;;;6.70;5.07;;;17.70;93.30;;;;;;4983738;28;20192;-59
2022/09/15 05:14:42;;;;;;;6.70;4.83;;;17.80;93.30;;;;;;4977495;28;20192;-60
2022/09/15 05:17:07;;;;;;;7.33;5.40;;;17.70;93.30;;;;;;5001032;28;20180;-60
2022/09/15 05:19:33;;;;;;;5.50;5.00;;;17.80;93.20;;;;;;4999271;28;20209;-60
2022/09/15 05:21:59;;;;;;;8.27;4.83;;;17.80;93.10;;;;;;4976570;28;20215;-60
2022/09/15 05:24:24;;;;;;;6.93;5.80;;;17.80;93.00;;;;;;4993516;28;20285;-60
2022/09/15 05:26:50;;;;;;;5.17;4.77;;;17.80;93.00;;;;;;5003500;28;20276;-60
2022/09/15 05:29:16;;;;;;;6.10;5.03;;;17.80;93.00;;;;;;5019196;28;20197;-60
2022/09/15 05:31:41;;;;;;;5.30;4.87;;;17.80;93.20;;;;;;5001922;28;20195;-60
2022/09/15 05:34:07;;;;;;;8.23;5.60;;;17.80;93.00;;;;;;5021318;28;20200;-59
2022/09/15 05:36:33;;;;;;;5.87;5.30;;;17.80;93.10;;;;;;5004440;28;20220;-59
2022/09/15 05:39:00;;;;;;;7.20;6.10;;;17.80;93.10;;;;;;5003790;28;20266;-59
2022/09/15 05:41:27;;;;;;;5.87;5.30;;;17.80;93.10;;;;;;5007556;28;20202;-59
2022/09/15 05:43:58;;;;;;;7.07;5.83;;;17.80;93.10;;;;;;4973254;28;20215;-59
2022/09/15 05:46:24;;;;;;;6.43;5.17;;;17.80;93.20;;;;;;5015407;28;20185;-59
2022/09/15 05:48:53;;;;;;;5.53;5.03;;;17.80;93.20;;;;;;5008195;28;20189;-59
2022/09/15 05:51:19;;;;;;;7.30;5.93;;;17.80;93.20;;;;;;5010438;28;20215;-59
2022/09/15 05:53:44;;;;;;;6.17;5.57;;;17.80;93.20;;;;;;5007147;28;20220;-59
2022/09/15 05:56:12;;;;;;;6.00;5.40;;;17.80;93.20;;;;;;4992704;28;20228;-59
2022/09/15 05:58:43;;;;;;;8.10;5.03;;;17.90;93.30;;;;;;4995211;28;20234;-59
2022/09/15 06:01:21;;;;;;;5.93;5.43;;;17.90;93.20;;;;;;5016328;28;20208;-59
2022/09/15 06:03:48;;;;;;;5.33;4.83;;;17.90;93.10;;;;;;5026099;28;20276;-59
2022/09/15 06:06:14;;;;;;;6.20;5.70;;;17.90;93.10;;;;;;5002979;28;20188;-59
2022/09/15 06:08:43;;;;;;;5.90;5.37;;;17.90;93.10;;;;;;5011600;28;20197;-58
2022/09/15 06:11:11;;;;;;;7.77;5.83;;;17.90;93.20;;;;;;5011263;28;20193;-59
2022/09/15 06:13:37;;;;;;;7.43;5.07;;;17.90;93.30;;;;;;4973303;28;20197;-59
2022/09/15 06:16:06;;;;;;;7.53;5.23;;;17.90;93.20;;;;;;5014518;28;20195;-59
2022/09/15 06:18:33;;;;;;;6.13;4.97;;;17.90;93.20;;;;;;4990986;28;20193;-59
2022/09/15 06:21:08;;;;;;;5.60;5.10;;;18.00;93.30;;;;;;5018652;28;20219;-59
2022/09/15 06:23:35;;;;;;;5.70;5.10;;;18.00;93.30;;;;;;4991850;28;20191;-59
2022/09/15 06:26:15;;;;;;;4.93;4.50;;;18.00;93.30;;;;;;5016506;28;20249;-59
2022/09/15 06:28:50;;;;;;;6.10;5.00;;;18.00;93.20;;;;;;4983484;28;20184;-59
2022/09/15 06:31:16;;;;;;;5.97;4.63;;;18.00;93.30;;;;;;4980154;28;20188;-59
2022/09/15 06:33:44;;;;;;;4.80;4.23;;;18.10;93.30;;;;;;4975142;28;20244;-59
2022/09/15 06:36:14;;;;;;;7.70;5.23;;;18.10;93.40;;;;;;4992373;28;20208;-59
2022/09/15 06:38:41;;;;;;;5.40;4.90;;;18.00;93.10;;;;;;4988255;28;20221;-60
2022/09/15 06:41:07;;;;;;;7.13;5.50;;;18.00;92.90;;;;;;5008086;28;20323;-58
2022/09/15 06:43:33;;;;;;;5.83;4.87;;;17.90;93.00;;;;;;4990846;28;20204;-59
2022/09/15 06:46:14;;;;;;;8.00;5.20;;;18.00;93.10;;;;;;5011171;28;20204;-59
2022/09/15 06:48:41;;;;;;;5.87;4.97;;;18.00;93.10;;;;;;4991022;28;20208;-59
2022/09/15 06:51:09;;;;;;;5.17;4.67;;;18.00;93.10;;;;;;4989264;28;20193;-59
2022/09/15 06:53:37;;;;;;;6.33;5.23;;;18.00;93.20;;;;;;4981832;28;20197;-59
2022/09/15 06:56:11;;;;;;;6.80;5.20;;;18.10;93.20;;;;;;5005986;28;20189;-59
2022/09/15 06:58:39;;;;;;;5.60;5.10;;;18.20;93.30;;;;;;5004487;28;20203;-59
2022/09/15 07:01:08;;;;;;;5.13;4.63;;;18.20;93.40;;;;;;5011614;28;20208;-59
2022/09/15 07:03:35;;;;;;;6.43;4.77;;;18.20;93.30;;;;;;5011926;28;20224;-58
2022/09/15 07:06:02;;;;;;;5.37;4.87;;;18.20;93.30;;;;;;5017946;28;20275;-59
2022/09/15 07:08:28;;;;;;;6.00;5.40;;;18.30;93.30;;;;;;4983849;28;20189;-59
2022/09/15 07:10:54;;;;;;;5.23;4.70;;;18.30;93.40;;;;;;4991584;28;20292;-60
2022/09/15 07:13:20;;;;;;;6.43;5.67;;;18.40;93.40;;;;;;5006280;28;20280;-59
2022/09/15 07:15:55;;;;;;;6.20;5.60;;;18.40;93.40;;;;;;5005941;28;20205;-59
2022/09/15 07:18:22;;;;;;;6.23;5.70;;;18.50;93.40;;;;;;4987416;28;20188;-59
2022/09/15 07:20:48;;;;;;;6.50;5.73;;;18.60;93.40;;;;;;4992973;28;20219;-60
2022/09/15 07:23:13;;;;;;;6.17;5.60;;;18.60;93.20;;;;;;4991549;28;20208;-60
2022/09/15 07:25:43;;;;;;;7.40;5.50;;;18.70;93.10;;;;;;4983024;28;20189;-59
2022/09/15 07:28:13;;;;;;;8.33;5.10;;;18.70;93.20;;;;;;5019095;28;20196;-59
2022/09/15 07:30:40;;;;;;;5.33;4.63;;;18.70;93.10;;;;;;5005445;28;20193;-60
2022/09/15 07:33:07;;;;;;;5.10;4.60;;;18.70;93.00;;;;;;5019936;28;20228;-59
2022/09/15 07:35:33;;;;;;;9.10;4.70;;;18.70;92.90;;;;;;5018033;28;20192;-60
2022/09/15 07:37:59;;;;;;;5.87;4.57;;;18.60;92.80;;;;;;4971549;28;20195;-60
2022/09/15 07:40:25;;;;;;;6.50;5.37;;;18.60;92.80;;;;;;5004455;28;20229;-60
2022/09/15 07:42:51;;;;;;;6.50;4.60;;;18.70;92.80;;;;;;4986001;28;20186;-60
2022/09/15 07:45:17;;;;;;;6.17;4.63;;;18.70;92.70;;;;;;4997806;28;20203;-60
2022/09/15 07:47:43;;;;;;;5.57;4.47;;;18.70;92.60;;;;;;5007234;28;20223;-60
2022/09/15 07:50:08;;;;;;;5.03;4.53;;;18.70;92.60;;;;;;4995798;28;20237;-60
2022/09/15 07:52:34;;;;;;;6.67;4.50;;;18.70;92.50;;;;;;5021030;28;20185;-59
2022/09/15 07:55:00;;;;;;;5.60;4.77;;;18.70;92.30;;;;;;4997766;28;20198;-59
2022/09/15 07:57:26;;;;;;;5.87;5.27;;;18.70;92.40;;;;;;5017887;28;20193;-58
2022/09/15 07:59:51;;;;;;;5.27;4.77;;;18.80;92.50;;;;;;4981867;28;20247;-58
2022/09/15 08:02:19;;;;;;;5.40;4.37;;;18.80;92.90;;;;;;4991724;28;20214;-58
2022/09/15 08:04:45;;;;;;;7.67;5.63;;;19.00;93.00;;;;;;5005153;28;20236;-58
2022/09/15 08:07:11;;;;;;;6.63;4.60;;;19.00;93.30;;;;;;5006666;28;20181;-58
2022/09/15 08:09:39;;;;;;;6.60;4.97;;;19.20;93.10;;;;;;5008636;28;20201;-58
2022/09/15 08:12:05;;;;;;;5.23;4.03;;;19.30;93.10;;;;;;5009807;28;20204;-58
2022/09/15 08:14:32;;;;;;;4.23;3.80;;;19.30;92.70;;;;;;5025696;28;20195;-59
2022/09/15 08:16:59;;;;;;;5.43;3.77;;;19.30;92.50;;;;;;5022006;28;20212;-59
2022/09/15 08:19:30;;;;;;;4.10;3.57;;;19.30;90.60;;;;;;5017365;28;20240;-61
2022/09/15 08:21:56;;;;;;;5.90;3.77;;;19.30;91.00;;;;;;4980901;28;20195;-61
2022/09/15 08:24:22;;;;;;;4.20;3.80;;;19.30;91.10;;;;;;5019802;28;20188;-61
2022/09/15 08:26:48;;;;;;;8.30;3.37;;;19.30;91.30;;;;;;5002162;28;20216;-61
2022/09/15 08:29:14;;;;;;;5.07;3.47;;;19.30;90.70;;;;;;4998306;28;20220;-61
2022/09/15 08:31:40;;;;;;;4.63;4.17;;;19.30;89.90;;;;;;5026160;28;20181;-62
2022/09/15 08:34:05;;;;;;;3.63;3.33;;;19.30;90.30;;;;;;5006721;28;20197;-60
2022/09/15 08:36:34;;;;;;;4.60;3.57;;;19.30;90.70;;;;;;4981508;28;20193;-61
2022/09/15 08:39:01;;;;;;;5.77;3.57;;;19.30;91.00;;;;;;4965644;28;20220;-63
2022/09/15 08:41:32;;;;;;;3.90;3.33;;;19.40;91.20;;;;;;5009875;28;20299;-61
2022/09/15 08:44:20;;;;;;;5.67;4.00;;;19.40;91.30;;;;;;4990401;28;20184;-61
2022/09/15 08:47:00;;;;;;;7.13;5.13;;;19.50;91.40;;;;;;5019515;28;20192;-61
2022/09/15 08:49:48;;;;;;;4.90;4.10;;;19.50;91.60;;;;;;4993829;28;20246;-59
2022/09/15 08:52:47;;;;;;;7.00;3.93;;;19.60;91.80;;;;;;5024295;28;20322;-59
2022/09/15 08:55:40;;;;;;;5.53;3.70;;;19.70;92.20;;;;;;4980916;28;20196;-60
2022/09/15 08:58:29;;;;;;;4.37;3.97;;;19.80;91.90;;;;;;5008955;28;20201;-60
2022/09/15 09:01:10;;;;;;;6.27;3.63;;;19.90;92.30;;;;;;5011606;28;20286;-60
2022/09/15 09:03:57;;;;;;;4.57;3.00;;;19.90;89.10;;;;;;5014842;28;20197;-60
2022/09/15 09:06:41;;;;;;;4.30;3.20;;;19.90;87.70;;;;;;5014959;28;20212;-61
2022/09/15 09:09:13;;;;;;;5.83;2.83;;;19.90;87.80;;;;;;4987755;28;20188;-60
2022/09/15 09:12:14;;;;;;;3.70;2.47;;;19.80;87.80;;;;;;5011917;28;20192;-61
2022/09/15 09:15:03;;;;;;;5.37;3.27;;;19.80;89.40;;;;;;5018760;28;20188;-61
2022/09/15 09:18:02;;;;;;;3.63;3.00;;;19.80;89.90;;;;;;5006987;28;20204;-60
2022/09/15 09:20:34;;;;;;;3.17;2.87;;;19.80;89.70;;;;;;4983000;28;20201;-60
2022/09/15 09:23:02;;;;;;;3.83;2.70;;;19.80;88.90;;;;;;5022071;28;20285;-60
2022/09/15 09:25:28;;;;;;;3.80;3.20;;;19.80;88.90;;;;;;4978511;28;20204;-60
2022/09/15 09:27:57;;;;;;;4.03;2.97;;;19.80;89.20;;;;;;5029691;28;20193;-59
2022/09/15 09:30:24;;;;;;;3.70;3.00;;;19.80;89.30;;;;;;4996523;28;20279;-60
2022/09/15 09:33:04;;;;;;;3.47;3.13;;;19.80;89.00;;;;;;4976963;28;20268;-60
2022/09/15 09:35:30;;;;;;;6.03;3.27;;;19.70;87.20;;;;;;5025010;28;20242;-60
2022/09/15 09:37:56;;;;;;;5.03;3.47;;;19.70;87.10;;;;;;5020147;28;20188;-60
2022/09/15 09:40:22;;;;;;;6.83;3.40;;;19.80;86.90;;;;;;5002478;28;20244;-60
2022/09/15 09:42:48;;;;;;;6.13;3.27;;;19.80;87.50;;;;;;5009576;28;20188;-60
2022/09/15 09:45:17;;;;;;;4.73;3.00;;;19.80;85.20;;;;;;4990015;28;20191;-60
2022/09/15 09:47:43;;;;;;;3.37;2.80;;;19.80;84.60;;;;;;4991887;28;20267;-60
2022/09/15 09:50:32;;;;;;;4.90;2.90;;;19.80;85.90;;;;;;5007759;28;20283;-60
2022/09/15 09:52:58;;;;;;;3.73;3.17;;;19.80;86.00;;;;;;5006474;28;20183;-60
2022/09/15 09:55:26;;;;;;;4.50;2.90;;;19.80;84.40;;;;;;5006025;28;20196;-60
2022/09/15 09:57:53;;;;;;;5.67;2.67;;;19.80;85.50;;;;;;4973818;28;20191;-60
2022/09/15 10:00:32;;;;;;;3.70;2.60;;;19.80;87.00;;;;;;4974212;28;20236;-59
2022/09/15 10:03:10;;;;;;;6.00;2.83;;;19.90;87.20;;;;;;5006708;28;20181;-60
2022/09/15 10:05:36;;;;;;;6.53;3.20;;;19.80;88.00;;;;;;5016581;28;20185;-60
2022/09/15 10:08:02;;;;;;;3.77;2.80;;;19.90;88.80;;;;;;4997889;28;20204;-60
2022/09/15 10:10:31;;;;;;;6.37;2.93;;;20.00;89.00;;;;;;5015626;28;20196;-61
2022/09/15 10:12:58;;;;;;;3.07;2.03;;;20.00;89.00;;;;;;5004836;28;20197;-61
2022/09/15 10:15:32;;;;;;;5.20;2.43;;;20.00;82.70;;;;;;4988490;28;20197;-59
2022/09/15 10:17:59;;;;;;;3.77;2.20;;;20.00;84.10;;;;;;4992850;28;20242;-59
2022/09/15 10:20:48;;;;;;;5.33;2.97;;;19.90;84.80;;;;;;4994331;28;20220;-59
2022/09/15 10:23:16;;;;;;;5.30;4.03;;;19.90;84.30;;;;;;5022241;28;20188;-59
2022/09/15 10:25:43;;;;;;;5.70;2.90;;;19.90;84.70;;;;;;5021901;28;20189;-59
2022/09/15 10:28:24;;;;;;;3.80;2.90;;;20.00;81.80;;;;;;4978788;28;20236;-59
2022/09/15 10:31:09;;;;;;;4.67;2.90;;;19.90;82.30;;;;;;5017243;28;20203;-59
2022/09/15 10:33:46;;;;;;;5.50;2.43;;;19.80;83.00;;;;;;5013554;28;20235;-59
2022/09/15 10:36:15;;;;;;;5.40;1.77;;;19.60;84.60;;;;;;5020460;28;20203;-59
2022/09/15 10:38:48;;;;;;;2.20;1.87;;;19.50;84.80;;;;;;4989394;28;20180;-59
2022/09/15 10:41:30;;;;;;;2.50;1.83;;;19.40;86.70;;;;;;5020007;28;20209;-59
2022/09/15 10:44:19;;;;;;;2.67;1.73;;;19.30;86.70;;;;;;5021054;28;20184;-59
2022/09/15 10:47:22;;;;;;;4.67;2.07;;;19.30;87.50;;;;;;5019473;28;20197;-59
2022/09/15 10:50:07;;;;;;;2.93;2.20;;;19.20;88.10;;;;;;4980642;28;20184;-60
2022/09/15 10:52:41;;;;;;;9.70;3.23;;;19.20;88.60;;;;;;5020541;28;20197;-60
2022/09/15 10:55:18;;;;;;;6.10;2.60;;;19.20;89.30;;;;;;5017453;28;20180;-60
2022/09/15 10:57:56;;;;;;;3.10;2.00;;;19.10;90.30;;;;;;5022366;28;20184;-60
2022/09/15 11:00:24;;;;;;;3.27;1.80;;;19.10;90.80;;;;;;4988622;28;20208;-59
2022/09/15 11:03:30;;;;;;;2.13;1.83;;;19.20;90.80;;;;;;4973746;28;20189;-60
2022/09/15 11:06:17;;;;;;;3.00;1.97;;;19.20;91.00;;;;;;4986271;28;20188;-61
2022/09/15 11:08:55;;;;;;;2.60;1.80;;;19.10;91.10;;;;;;5012717;28;20186;-61
2022/09/15 11:11:47;;;;;;;2.27;2.03;;;19.10;91.20;;;;;;5012052;28;20182;-60
2022/09/15 11:14:30;;;;;;;2.70;1.93;;;19.00;91.30;;;;;;5019942;28;20192;-61
2022/09/15 11:17:25;;;;;;;3.50;2.43;;;18.80;89.90;;;;;;4979375;28;20203;-61
2022/09/15 11:20:06;;;;;;;4.17;2.33;;;18.60;90.00;;;;;;5009159;28;20244;-61
2022/09/15 11:22:38;;;;;;;3.43;2.00;;;18.30;90.60;;;;;;4973844;28;20200;-60
2022/09/15 11:25:13;;;;;;;5.30;2.53;;;18.00;91.30;;;;;;4986619;28;20196;-59
2022/09/15 11:27:45;;;;;;;4.27;2.27;;;17.80;92.10;;;;;;5022425;28;20275;-60
2022/09/15 11:30:39;;;;;;;4.30;2.03;;;17.80;92.80;;;;;;5016361;28;20189;-60
2022/09/15 11:33:24;;;;;;;2.70;2.30;;;17.90;93.20;;;;;;4981406;28;20224;-60
2022/09/15 11:36:11;;;;;;;5.13;2.40;;;17.90;93.20;;;;;;5009879;28;20196;-60
2022/09/15 11:38:46;;;;;;;5.07;2.87;;;17.90;93.40;;;;;;5001491;28;20192;-59
2022/09/15 11:41:27;;;;;;;4.63;2.30;;;18.00;93.60;;;;;;5015824;28;20216;-59
2022/09/15 11:44:21;;;;;;;3.17;2.20;;;17.90;93.80;;;;;;5028132;28;20184;-59
2022/09/15 11:46:56;;;;;;;3.27;1.97;;;18.00;94.20;;;;;;5002570;28;20185;-59
2022/09/15 11:49:28;;;;;;;4.70;2.53;;;18.10;94.50;;;;;;4991900;28;20184;-59
2022/09/15 11:52:35;;;;;;;4.27;2.50;;;18.10;94.70;;;;;;5014918;28;20186;-59
2022/09/15 11:55:39;;;;;;;2.77;2.17;;;18.30;94.90;;;;;;4983410;28;20197;-59
2022/09/15 11:58:23;;;;;;;3.23;2.10;;;18.40;95.10;;;;;;4984842;28;20203;-60
2022/09/15 12:01:01;;;;;;;4.17;1.80;;;18.50;95.20;;;;;;5020913;28;20237;-60
2022/09/15 12:03:36;;;;;;;1.87;1.57;;;18.60;95.20;;;;;;5005174;28;20185;-60
2022/09/15 12:06:13;;;;;;;3.03;1.40;;;18.60;94.60;;;;;;4987185;28;20208;-60
2022/09/15 12:08:51;;;;;;;5.83;1.90;;;18.60;94.20;;;;;;4991436;28;20216;-60
2022/09/15 12:11:21;;;;;;;3.53;2.00;;;18.70;94.80;;;;;;5023619;28;20189;-60
2022/09/15 12:13:47;;;;;;;4.97;2.10;;;19.00;95.30;;;;;;5025357;28;20203;-59
2022/09/15 12:16:14;;;;;;;4.33;1.77;;;19.30;95.50;;;;;;5013776;28;20194;-60
2022/09/15 12:18:58;;;;;;;1.60;1.50;;;19.50;95.50;;;;;;5025249;28;20188;-60
2022/09/15 12:21:44;;;;;;;2.33;1.73;;;19.50;95.00;;;;;;5019528;28;20204;-60
2022/09/15 12:24:26;;;;;;;3.63;1.30;;;19.60;94.70;;;;;;5012971;28;20181;-60
2022/09/15 12:26:52;;;;;;;3.63;1.70;;;19.30;92.70;;;;;;4989520;28;20189;-60
2022/09/15 12:29:20;;;;;;;3.30;1.40;;;19.20;92.80;;;;;;5013518;28;20280;-60
2022/09/15 12:31:46;;;;;;;2.10;1.20;;;18.90;90.70;;;;;;4990307;28;20226;-60
2022/09/15 12:34:24;;;;;;;1.20;1.10;;;18.70;89.90;;;;;;5000920;28;20224;-59
2022/09/15 12:37:13;;;;;;;1.30;1.20;;;18.60;90.40;;;;;;5015387;28;20192;-59
2022/09/15 12:39:44;;;;;;;1.93;1.20;;;18.50;91.40;;;;;;5017261;28;20209;-59
2022/09/15 12:42:26;;;;;;;1.33;1.23;;;18.50;92.40;;;;;;4978636;28;20237;-59
2022/09/15 12:44:55;;;;;;;1.50;1.40;;;18.60;93.10;;;;;;4980647;28;20255;-58
2022/09/15 12:47:55;;;;;;;2.03;1.30;;;18.70;93.40;;;;;;5023151;28;20196;-59
2022/09/15 12:50:29;;;;;;;2.97;1.33;;;18.70;93.50;;;;;;4983829;28;20194;-58
2022/09/15 12:53:11;;;;;;;1.20;1.10;;;18.80;93.90;;;;;;5016192;28;20193;-59
2022/09/15 12:55:51;;;;;;;2.40;1.70;;;18.90;94.10;;;;;;4986945;28;20232;-59
2022/09/15 12:58:46;;;;;;;2.07;1.57;;;19.20;94.60;;;;;;5015021;28;20204;-59
2022/09/15 13:01:17;;;;;;;1.60;1.20;;;20.10;95.20;;;;;;5015181;28;20216;-59
2022/09/15 13:03:44;;;;;;;1.70;1.23;;;20.80;93.30;;;;;;5021748;28;20240;-58
2022/09/15 13:06:09;;;;;;;4.60;1.20;;;20.80;88.60;;;;;;5022674;28;20180;-58
2022/09/15 13:08:35;;;;;;;2.30;1.30;;;20.60;89.20;;;;;;5024652;28;20203;-58
2022/09/15 13:11:06;;;;;;;2.33;1.37;;;20.30;89.20;;;;;;5019869;28;20192;-58
2022/09/15 13:13:45;;;;;;;3.20;1.37;;;20.30;90.60;;;;;;5019830;28;20197;-58